Frost Museum of Science FL US current weather conditions

sailwx.info

Wind from 289 at 1 knots gusting 3

Air temperature 30.1° C
Dewpoint 25.2° C

Last reported at 2019-Sep-15 15:00 UTC.
Time now 2019-Sep-15 16:00 UTC

Location: N 25°47' W 080°11'.
View on Google Maps.

See reports from other nearby stations

  
Tides and Currents Weather Stations Pressure Air Temp Water Temp Dewpoint Dewpoint Depression Visibility Wind Speed Wind Dir Waves Ship Positions
date/time (UTC)wind fromknots sea level pressurealtimeterstation pressurevisibilityair tempwater tempwave heightnotes
2019-Sep-15 15:00 289 1 gusting 3 30.1
2019-Sep-15 14:50 307 0 gusting 2 29.9
2019-Sep-15 14:40 307 1 gusting 6 28.9
2019-Sep-15 14:30 321 5 gusting 7 28.5
2019-Sep-15 14:20 318 1 gusting 6 28.4
2019-Sep-15 14:10 310 3 gusting 7 28.2
2019-Sep-15 14:00 309 4 gusting 6 28.1
2019-Sep-15 13:50 311 3 gusting 6 27.7
2019-Sep-15 13:40 318 3 gusting 5 27.9
2019-Sep-15 13:30 312 3 gusting 7 27.6
2019-Sep-15 13:20 302 7 gusting 9 27.3
2019-Sep-15 13:10 301 6 gusting 9 27.0
2019-Sep-15 13:00 342 5 gusting 9 26.8
2019-Sep-15 12:50 301 4 gusting 10 26.8
2019-Sep-15 12:40 300 3 gusting 10 26.7
2019-Sep-15 12:30 304 3 gusting 10 26.6
2019-Sep-15 12:20 302 3 gusting 8 26.4
2019-Sep-15 12:10 309 2 gusting 7 26.3
2019-Sep-15 12:00 309 4 gusting 7 26.2
2019-Sep-15 11:50 305 0 gusting 6 26.1
2019-Sep-15 11:40 26.1
2019-Sep-15 11:30 296 6 gusting 8 26.0
2019-Sep-15 11:20 302 3 gusting 7 26.1
2019-Sep-15 11:10 299 6 gusting 7 26.1
2019-Sep-15 11:00 300 1 gusting 5 26.1
2019-Sep-15 10:50 26.1
2019-Sep-15 10:40 26.1
2019-Sep-15 10:20 25.9
2019-Sep-15 10:10 309 4 gusting 7 25.9
2019-Sep-15 10:00 302 4 gusting 8 25.9
2019-Sep-15 09:50 304 7 gusting 9 26.1
2019-Sep-15 09:40 316 1 gusting 7 26.1
2019-Sep-15 09:30 306 6 gusting 8 26.1
2019-Sep-15 09:10 307 3 gusting 5 26.1
2019-Sep-15 09:00 306 0 gusting 6 26.1
2019-Sep-15 08:50 294 3 gusting 6 26.2
2019-Sep-15 08:40 311 0 gusting 5 26.3
2019-Sep-15 08:30 313 5 gusting 8 26.3
2019-Sep-15 08:20 304 6 gusting 7 26.3
2019-Sep-15 08:10 306 6 gusting 7 26.3
2019-Sep-15 08:00 304 3 gusting 7 26.4
2019-Sep-15 07:50 302 6 gusting 8 26.3
2019-Sep-15 07:40 309 6 gusting 6 26.4
2019-Sep-15 07:30 306 0 gusting 4 26.4
2019-Sep-15 07:20 304 0 gusting 4 26.3
2019-Sep-15 07:10 307 6 gusting 9 26.3
2019-Sep-15 07:00 306 6 gusting 9 26.3
2019-Sep-15 06:50 300 4 gusting 7 26.3
2019-Sep-15 06:40 303 4 gusting 7 26.4
2019-Sep-15 06:30 301 6 gusting 7 26.4
2019-Sep-15 06:20 300 7 gusting 7 26.4
2019-Sep-15 06:10 306 4 gusting 6 26.6
2019-Sep-15 06:00 298 6 gusting 9 26.6
2019-Sep-15 05:50 306 6 gusting 9 26.6
2019-Sep-15 05:40 307 1 gusting 4 26.6
2019-Sep-15 05:30 26.7
2019-Sep-15 05:20 307 26.7
2019-Sep-15 05:10 26.7
2019-Sep-15 05:00 26.7
2019-Sep-15 04:50 26.7
2019-Sep-15 04:40 311 3 gusting 7 26.7
2019-Sep-15 04:30 312 2 gusting 7 26.8
2019-Sep-15 04:20 304 4 gusting 6 26.7
2019-Sep-15 04:10 300 4 gusting 7 26.8
2019-Sep-15 04:00 298 2 gusting 9 26.8
2019-Sep-15 03:50 300 3 gusting 9 26.9
2019-Sep-15 03:40 309 6 gusting 8 27.1
2019-Sep-15 03:30 311 6 gusting 8 27.1
2019-Sep-15 03:20 304 6 gusting 9 26.9
2019-Sep-15 03:10 301 7 gusting 8 26.9
2019-Sep-15 03:00 296 6 gusting 7 27.1
2019-Sep-15 02:40 299 3 gusting 6 27.1
2019-Sep-15 02:20 313 1 gusting 6 27.1
2019-Sep-15 02:10 319 3 gusting 5 27.2
2019-Sep-15 02:00 320 2 gusting 5 27.2
2019-Sep-15 01:50 325 5 gusting 5 27.3
2019-Sep-15 01:40 327 2 gusting 5 27.3
2019-Sep-15 01:30 331 3 gusting 5 27.4
2019-Sep-15 01:20 355 4 gusting 6 27.4
2019-Sep-15 01:10 360 3 gusting 5 27.6
2019-Sep-15 01:00 005 0 gusting 3 27.6
2019-Sep-15 00:50 005 0 gusting 3 27.4
2019-Sep-15 00:40 336 4 gusting 4 27.7
2019-Sep-15 00:30 049 0 gusting 1 27.8
2019-Sep-15 00:20 28.0
2019-Sep-15 00:10 28.1
2019-Sep-15 00:00 049 0 gusting 2 28.2
2019-Sep-14 23:50 049 1 gusting 4 28.4
2019-Sep-14 23:40 049 3 gusting 5 28.5
2019-Sep-14 23:30 050 1 gusting 4 28.4
2019-Sep-14 23:10 053 0 gusting 6 28.6
2019-Sep-14 23:00 049 3 gusting 5 28.7
2019-Sep-14 22:50 28.7
2019-Sep-14 22:40 089 1 gusting 5 28.6
2019-Sep-14 22:30 042 5 gusting 7 28.6
2019-Sep-14 22:20 044 4 gusting 6 28.8
2019-Sep-14 22:10 098 2 gusting 6 28.9
2019-Sep-14 22:00 111 3 gusting 6 28.8
2019-Sep-14 21:50 113 2 gusting 5 28.9
2019-Sep-14 21:40 055 1 gusting 7 29.0
2019-Sep-14 21:30 037 1 gusting 6 29.0
2019-Sep-14 21:20 119 2 gusting 7 28.9
2019-Sep-14 21:10 129 3 gusting 7 29.0
2019-Sep-14 20:50 027 2 gusting 5 29.3
2019-Sep-14 20:40 114 5 gusting 10 29.3
2019-Sep-14 20:30 306 2 gusting 7 29.3
2019-Sep-14 20:20 054 2 gusting 9 29.4
2019-Sep-14 20:10 040 4 gusting 11 29.6
2019-Sep-14 20:00 048 7 gusting 12 29.9
2019-Sep-14 19:50 042 6 gusting 8 30.1
2019-Sep-14 19:40 030 3 gusting 10 30.0
2019-Sep-14 19:20 043 5 gusting 10 29.5
2019-Sep-14 19:10 053 7 gusting 12 29.6
2019-Sep-14 19:00 046 1 gusting 9 29.6
2019-Sep-14 18:50 111 1 gusting 13 29.7
2019-Sep-14 18:40 109 6 gusting 12 30.4
2019-Sep-14 18:30 043 8 gusting 11 30.4
2019-Sep-14 18:20 113 5 gusting 11 30.3
2019-Sep-14 18:10 028 6 gusting 12 30.1
2019-Sep-14 18:00 084 0 gusting 7 30.5
2019-Sep-14 17:50 040 4 gusting 12 30.3
2019-Sep-14 17:40 022 6 gusting 11 30.1
2019-Sep-14 17:30 039 3 gusting 12 30.3
2019-Sep-14 17:20 055 4 gusting 13 30.1
2019-Sep-14 17:10 043 4 gusting 11 30.1
2019-Sep-14 17:00 039 11 gusting 11 30.2
2019-Sep-14 16:50 049 2 gusting 8 30.2
2019-Sep-14 16:40 058 3 gusting 8 30.1
2019-Sep-14 16:30 049 3 gusting 8 30.1
2019-Sep-14 16:20 052 2 gusting 8 29.9
2019-Sep-14 16:10 036 2 gusting 8 29.9
2019-Sep-14 16:00 044 3 gusting 8 29.7
2019-Sep-14 15:50 294 0 gusting 2 29.2
2019-Sep-14 15:40 294 1 gusting 3 29.2
2019-Sep-14 15:30 295 1 gusting 4 28.4
2019-Sep-14 15:20 300 3 gusting 6 27.7
2019-Sep-14 15:10 299 4 gusting 8 27.8
2019-Sep-14 15:00 301 6 gusting 8 27.3
2019-Sep-14 14:50 296 4 gusting 6 27.1
2019-Sep-14 14:40 296 6 gusting 7 27.1
2019-Sep-14 14:30 302 6 gusting 8 27.2
2019-Sep-14 14:20 119 1 gusting 3 26.9
2019-Sep-14 14:10 118 1 gusting 6 27.0
2019-Sep-14 14:00 049 1 gusting 5 27.9
2019-Sep-14 13:50 036 2 gusting 4 27.8
2019-Sep-14 13:40 039 1 gusting 4 27.5
2019-Sep-14 13:30 042 1 gusting 7 27.3
2019-Sep-14 13:20 332 0 gusting 2 27.4
2019-Sep-14 13:10 331 2 gusting 11 26.9
2019-Sep-14 13:00 042 5 gusting 10 28.2
2019-Sep-14 12:50 055 1 gusting 5 28.4
2019-Sep-14 12:40 063 1 gusting 5 28.3
2019-Sep-14 12:30 097 3 gusting 5 28.2
2019-Sep-14 12:20 105 1 gusting 8 28.2
2019-Sep-14 12:10 083 0 gusting 8 28.1
2019-Sep-14 11:50 065 0 gusting 9 27.8
2019-Sep-14 11:40 084 1 gusting 6 27.6
2019-Sep-14 11:30 101 3 gusting 8 27.5
2019-Sep-14 11:20 078 1 gusting 9 27.6
2019-Sep-14 11:10 360 1 gusting 11 27.7
2019-Sep-14 11:00 123 0 gusting 13 27.8
2019-Sep-14 10:50 104 2 gusting 8 27.8
2019-Sep-14 10:40 034 1 gusting 7 27.7
2019-Sep-14 10:30 049 3 gusting 9 27.7
2019-Sep-14 10:20 039 3 gusting 12 27.6
2019-Sep-14 10:10 005 2 gusting 8 27.6
2019-Sep-14 10:00 242 1 gusting 7 27.4
2019-Sep-14 09:50 099 3 gusting 5 27.3
2019-Sep-14 09:40 095 26.9
2019-Sep-14 09:30 112 1 gusting 8 26.8
2019-Sep-14 09:20 082 3 gusting 6 27.1
2019-Sep-14 09:10 081 1 gusting 11 27.3
2019-Sep-14 09:00 106 1 gusting 11 27.4
2019-Sep-14 08:50 080 0 gusting 9 27.2
2019-Sep-14 08:40 26.9
2019-Sep-14 08:30 132 1 gusting 5 26.5
2019-Sep-14 08:20 165 4 gusting 8 26.4
2019-Sep-14 08:10 126 6 gusting 16 26.6
2019-Sep-14 08:00 110 9 gusting 17 27.4
2019-Sep-14 07:50 083 6 gusting 7 27.9
2019-Sep-14 07:40 128 3 gusting 11 27.8
2019-Sep-14 07:30 048 0 gusting 10 27.8
2019-Sep-14 07:20 115 3 gusting 7 27.8
2019-Sep-14 07:10 129 2 gusting 10 27.8
2019-Sep-14 07:00 032 9 gusting 10 27.8
2019-Sep-14 06:50 105 1 gusting 12 27.8
2019-Sep-14 06:40 109 5 gusting 9 27.9
2019-Sep-14 06:30 033 9 gusting 10 27.9
2019-Sep-14 06:20 109 3 gusting 9 27.8
2019-Sep-14 06:10 115 3 gusting 8 27.9
2019-Sep-14 06:00 075 4 gusting 12 27.8
2019-Sep-14 05:50 094 8 gusting 10 27.8
2019-Sep-14 05:40 040 5 gusting 13 27.7
2019-Sep-14 05:30 063 2 gusting 10 27.7
2019-Sep-14 05:20 046 4 gusting 13 27.7
2019-Sep-14 05:10 118 6 gusting 11 27.3
2019-Sep-14 05:00 112 7 gusting 11 27.3
2019-Sep-14 04:50 046 8 gusting 9 27.4
2019-Sep-14 04:40 094 5 gusting 10 27.7
2019-Sep-14 04:30 140 6 gusting 9 28.1
2019-Sep-14 04:10 131 6 gusting 11 27.9
2019-Sep-14 04:00 073 2 gusting 13 27.9
2019-Sep-14 03:50 180 4 gusting 11 28.0
2019-Sep-14 03:40 057 3 gusting 13 28.0
2019-Sep-14 03:30 128 8 gusting 12 27.9
2019-Sep-14 03:20 155 7 gusting 13 27.8
2019-Sep-14 03:10 119 4 gusting 12 27.8
2019-Sep-14 03:00 136 6 gusting 13 27.6
2019-Sep-14 02:50 110 9 gusting 12 27.4
2019-Sep-14 02:40 038 13 gusting 13 27.0
2019-Sep-14 02:30 121 8 gusting 12 26.7
2019-Sep-14 02:20 056 2 gusting 6 26.5
2019-Sep-14 02:10 142 2 gusting 7 26.3
2019-Sep-14 02:00 161 3 gusting 13 26.1
2019-Sep-14 01:50 125 6 gusting 19 26.7
2019-Sep-14 01:40 082 3 gusting 11 27.4
2019-Sep-14 01:30 040 3 gusting 15 28.1
2019-Sep-14 01:20 136 12 gusting 13 28.0
2019-Sep-14 01:10 086 6 gusting 12 28.2
2019-Sep-14 01:00 091 9 gusting 13 28.3
2019-Sep-14 00:50 124 10 gusting 18 28.1
2019-Sep-14 00:40 118 6 gusting 13 28.1
2019-Sep-14 00:30 114 3 gusting 11 27.9
2019-Sep-14 00:20 009 6 gusting 16 28.1
2019-Sep-14 00:10 103 6 gusting 11 28.3
2019-Sep-14 00:00 093 3 gusting 12 28.3
2019-Sep-13 23:50 082 9 gusting 23 28.7
2019-Sep-13 23:40 109 14 gusting 17 28.6
2019-Sep-13 23:30 103 6 gusting 19 28.6
2019-Sep-13 23:20 105 7 gusting 13 28.5
2019-Sep-13 23:10 128 3 gusting 13 28.4
2019-Sep-13 23:00 054 4 gusting 14 28.6
2019-Sep-13 22:50 092 2 gusting 14 28.6
2019-Sep-13 22:40 068 4 gusting 14 28.6
2019-Sep-13 22:30 070 8 gusting 13 28.4
2019-Sep-13 22:20 100 6 gusting 13 28.3
2019-Sep-13 22:10 013 2 gusting 15 28.1
2019-Sep-13 22:00 051 3 gusting 13 27.9
2019-Sep-13 21:50 126 7 gusting 11 27.6
2019-Sep-13 21:40 113 3 gusting 11 27.2
2019-Sep-13 21:30 074 6 gusting 16 26.9
2019-Sep-13 21:20 107 6 gusting 13 26.4
2019-Sep-13 21:10 028 6 gusting 17 26.0
2019-Sep-13 21:00 341 6 gusting 17 26.4
2019-Sep-13 20:50 052 8 gusting 10 29.3
2019-Sep-13 20:40 109 5 gusting 10 29.3
2019-Sep-13 20:30 030 10 gusting 14 29.1
2019-Sep-13 20:20 040 6 gusting 13 29.1
2019-Sep-13 20:10 054 13 gusting 17 29.3
2019-Sep-13 20:00 027 9 gusting 13 29.4
2019-Sep-13 19:50 130 9 gusting 15 28.9
2019-Sep-13 19:40 013 3 gusting 14 29.5
2019-Sep-13 19:30 140 6 gusting 12 29.4
2019-Sep-13 19:20 118 6 gusting 11 29.2
2019-Sep-13 19:10 111 5 gusting 15 28.4
2019-Sep-13 19:00 144 2 gusting 12 29.8
2019-Sep-13 18:50 093 5 gusting 13 29.8
2019-Sep-13 18:40 035 4 gusting 15 29.4
2019-Sep-13 18:30 051 4 gusting 14 29.6
2019-Sep-13 18:20 036 7 gusting 15 29.3
2019-Sep-13 18:10 120 4 gusting 11 29.2
2019-Sep-13 18:00 045 3 gusting 14 28.6
2019-Sep-13 17:50 119 4 gusting 10 29.6
2019-Sep-13 17:40 091 5 gusting 13 29.9
2019-Sep-13 17:30 026 7 gusting 13 30.3
2019-Sep-13 17:20 098 2 gusting 14 30.0
2019-Sep-13 17:10 055 2 gusting 12 30.4
2019-Sep-13 17:00 298 2 gusting 10 30.0
2019-Sep-13 16:50 036 2 gusting 13 29.8
2019-Sep-13 16:40 103 6 gusting 13 30.0
2019-Sep-13 16:30 033 7 gusting 13 30.1
2019-Sep-13 16:20 051 6 gusting 13 30.3
2019-Sep-13 16:10 065 3 gusting 13 30.0
2019-Sep-13 16:00 096 1 gusting 13 30.2